sensor_id;sensor_type;location;lat;lon;timestamp;temperature;humidity
67799;SHT30;54596;43.216;27.904;2023-02-15T00:01:21;5.78;68.74
67799;SHT30;54596;43.216;27.904;2023-02-15T00:03:50;5.81;68.50
67799;SHT30;54596;43.216;27.904;2023-02-15T00:06:16;5.82;68.47
67799;SHT30;54596;43.216;27.904;2023-02-15T00:08:42;5.88;68.48
67799;SHT30;54596;43.216;27.904;2023-02-15T00:11:09;5.87;68.47
67799;SHT30;54596;43.216;27.904;2023-02-15T00:13:35;5.89;68.56
67799;SHT30;54596;43.216;27.904;2023-02-15T00:16:10;5.88;68.71
67799;SHT30;54596;43.216;27.904;2023-02-15T00:18:37;5.89;68.88
67799;SHT30;54596;43.216;27.904;2023-02-15T00:21:08;5.88;68.98
67799;SHT30;54596;43.216;27.904;2023-02-15T00:23:34;5.85;69.08
67799;SHT30;54596;43.216;27.904;2023-02-15T00:26:08;5.87;69.17
67799;SHT30;54596;43.216;27.904;2023-02-15T00:28:34;5.79;69.32
67799;SHT30;54596;43.216;27.904;2023-02-15T00:31:07;5.78;69.47
67799;SHT30;54596;43.216;27.904;2023-02-15T00:33:33;5.72;69.58
67799;SHT30;54596;43.216;27.904;2023-02-15T00:35:59;5.65;69.77
67799;SHT30;54596;43.216;27.904;2023-02-15T00:38:26;5.65;69.83
67799;SHT30;54596;43.216;27.904;2023-02-15T00:40:54;5.61;69.77
67799;SHT30;54596;43.216;27.904;2023-02-15T00:43:19;5.63;69.83
67799;SHT30;54596;43.216;27.904;2023-02-15T00:45:45;5.54;69.92
67799;SHT30;54596;43.216;27.904;2023-02-15T00:48:11;5.64;69.74
67799;SHT30;54596;43.216;27.904;2023-02-15T00:50:36;5.57;69.89
67799;SHT30;54596;43.216;27.904;2023-02-15T00:53:02;5.51;70.10
67799;SHT30;54596;43.216;27.904;2023-02-15T00:55:27;5.47;70.26
67799;SHT30;54596;43.216;27.904;2023-02-15T00:57:53;5.37;70.53
67799;SHT30;54596;43.216;27.904;2023-02-15T01:00:18;5.37;70.61
67799;SHT30;54596;43.216;27.904;2023-02-15T01:02:44;5.33;70.75
67799;SHT30;54596;43.216;27.904;2023-02-15T01:05:09;5.30;70.92
67799;SHT30;54596;43.216;27.904;2023-02-15T01:07:35;5.27;71.05
67799;SHT30;54596;43.216;27.904;2023-02-15T01:10:00;5.23;71.20
67799;SHT30;54596;43.216;27.904;2023-02-15T01:12:25;5.25;71.17
67799;SHT30;54596;43.216;27.904;2023-02-15T01:14:51;5.22;71.32
67799;SHT30;54596;43.216;27.904;2023-02-15T01:17:16;5.16;71.48
67799;SHT30;54596;43.216;27.904;2023-02-15T01:19:42;5.18;71.52
67799;SHT30;54596;43.216;27.904;2023-02-15T01:22:07;5.13;71.73
67799;SHT30;54596;43.216;27.904;2023-02-15T01:24:33;5.11;71.83
67799;SHT30;54596;43.216;27.904;2023-02-15T01:26:58;5.09;71.90
67799;SHT30;54596;43.216;27.904;2023-02-15T01:29:23;5.09;71.83
67799;SHT30;54596;43.216;27.904;2023-02-15T01:31:49;5.04;71.95
67799;SHT30;54596;43.216;27.904;2023-02-15T01:34:14;5.08;71.93
67799;SHT30;54596;43.216;27.904;2023-02-15T01:36:40;5.01;72.24
67799;SHT30;54596;43.216;27.904;2023-02-15T01:39:05;4.98;72.32
67799;SHT30;54596;43.216;27.904;2023-02-15T01:41:32;5.01;72.35
67799;SHT30;54596;43.216;27.904;2023-02-15T01:44:00;4.96;72.30
67799;SHT30;54596;43.216;27.904;2023-02-15T01:46:34;4.91;72.44
67799;SHT30;54596;43.216;27.904;2023-02-15T01:49:10;4.94;72.41
67799;SHT30;54596;43.216;27.904;2023-02-15T01:51:37;4.89;72.54
67799;SHT30;54596;43.216;27.904;2023-02-15T01:54:33;4.83;72.79
67799;SHT30;54596;43.216;27.904;2023-02-15T01:57:04;4.81;72.82
67799;SHT30;54596;43.216;27.904;2023-02-15T01:59:31;4.80;72.90
67799;SHT30;54596;43.216;27.904;2023-02-15T02:01:59;4.74;73.12
67799;SHT30;54596;43.216;27.904;2023-02-15T02:04:31;4.70;73.12
67799;SHT30;54596;43.216;27.904;2023-02-15T02:06:59;4.73;73.03
67799;SHT30;54596;43.216;27.904;2023-02-15T02:09:25;4.73;73.09
67799;SHT30;54596;43.216;27.904;2023-02-15T02:11:51;4.68;73.13
67799;SHT30;54596;43.216;27.904;2023-02-15T02:14:17;4.77;73.04
67799;SHT30;54596;43.216;27.904;2023-02-15T02:33:19;4.42;74.05
67799;SHT30;54596;43.216;27.904;2023-02-15T02:44:17;4.25;74.39
67799;SHT30;54596;43.216;27.904;2023-02-15T02:49:17;4.18;74.69
67799;SHT30;54596;43.216;27.904;2023-02-15T02:52:01;4.15;74.73
67799;SHT30;54596;43.216;27.904;2023-02-15T02:54:28;4.05;74.94
67799;SHT30;54596;43.216;27.904;2023-02-15T02:56:55;3.98;75.20
67799;SHT30;54596;43.216;27.904;2023-02-15T02:59:28;3.98;75.18
67799;SHT30;54596;43.216;27.904;2023-02-15T03:02:05;3.99;75.11
67799;SHT30;54596;43.216;27.904;2023-02-15T03:04:37;3.98;75.12
67799;SHT30;54596;43.216;27.904;2023-02-15T03:07:09;3.95;75.20
67799;SHT30;54596;43.216;27.904;2023-02-15T03:09:46;3.91;75.40
67799;SHT30;54596;43.216;27.904;2023-02-15T03:12:21;3.86;75.65
67799;SHT30;54596;43.216;27.904;2023-02-15T03:15:02;3.83;75.74
67799;SHT30;54596;43.216;27.904;2023-02-15T03:17:32;3.84;75.77
67799;SHT30;54596;43.216;27.904;2023-02-15T03:20:02;3.84;75.95
67799;SHT30;54596;43.216;27.904;2023-02-15T03:22:34;3.83;75.89
67799;SHT30;54596;43.216;27.904;2023-02-15T03:25:02;3.84;76.16
67799;SHT30;54596;43.216;27.904;2023-02-15T03:27:37;3.86;76.08
67799;SHT30;54596;43.216;27.904;2023-02-15T03:30:05;3.88;76.20
67799;SHT30;54596;43.216;27.904;2023-02-15T03:32:32;3.90;76.66
67799;SHT30;54596;43.216;27.904;2023-02-15T03:34:58;3.94;76.43
67799;SHT30;54596;43.216;27.904;2023-02-15T03:37:35;3.95;76.41
67799;SHT30;54596;43.216;27.904;2023-02-15T03:40:23;3.98;76.39
67799;SHT30;54596;43.216;27.904;2023-02-15T03:43:18;3.99;76.38
67799;SHT30;54596;43.216;27.904;2023-02-15T03:45:51;4.04;76.23
67799;SHT30;54596;43.216;27.904;2023-02-15T03:48:31;4.05;76.37
67799;SHT30;54596;43.216;27.904;2023-02-15T03:51:05;4.06;76.28
67799;SHT30;54596;43.216;27.904;2023-02-15T03:53:50;4.05;76.56
67799;SHT30;54596;43.216;27.904;2023-02-15T03:56:17;4.02;76.43
67799;SHT30;54596;43.216;27.904;2023-02-15T03:58:42;4.04;76.54
67799;SHT30;54596;43.216;27.904;2023-02-15T04:02:33;4.05;76.54
67799;SHT30;54596;43.216;27.904;2023-02-15T04:04:42;4.09;76.37
67799;SHT30;54596;43.216;27.904;2023-02-15T04:07:08;4.11;76.42
67799;SHT30;54596;43.216;27.904;2023-02-15T04:09:34;4.05;76.51
67799;SHT30;54596;43.216;27.904;2023-02-15T04:12:19;4.11;76.45
67799;SHT30;54596;43.216;27.904;2023-02-15T04:14:44;4.06;76.53
67799;SHT30;54596;43.216;27.904;2023-02-15T04:17:28;4.05;76.49
67799;SHT30;54596;43.216;27.904;2023-02-15T04:19:54;4.01;76.62
67799;SHT30;54596;43.216;27.904;2023-02-15T04:22:38;4.02;76.64
67799;SHT30;54596;43.216;27.904;2023-02-15T04:25:22;4.02;76.66
67799;SHT30;54596;43.216;27.904;2023-02-15T04:27:52;3.99;76.68
67799;SHT30;54596;43.216;27.904;2023-02-15T04:30:21;3.95;76.87
67799;SHT30;54596;43.216;27.904;2023-02-15T04:32:47;3.95;77.09
67799;SHT30;54596;43.216;27.904;2023-02-15T04:35:13;3.95;76.81
67799;SHT30;54596;43.216;27.904;2023-02-15T04:37:39;3.93;76.92
67799;SHT30;54596;43.216;27.904;2023-02-15T04:40:06;3.95;76.88
67799;SHT30;54596;43.216;27.904;2023-02-15T04:42:31;3.93;76.98
67799;SHT30;54596;43.216;27.904;2023-02-15T04:44:57;3.95;77.10
67799;SHT30;54596;43.216;27.904;2023-02-15T04:47:23;3.97;77.00
67799;SHT30;54596;43.216;27.904;2023-02-15T04:49:48;4.08;76.87
67799;SHT30;54596;43.216;27.904;2023-02-15T04:52:15;4.05;76.52
67799;SHT30;54596;43.216;27.904;2023-02-15T04:54:40;4.06;76.31
67799;SHT30;54596;43.216;27.904;2023-02-15T04:57:06;4.06;76.65
67799;SHT30;54596;43.216;27.904;2023-02-15T04:59:31;4.08;76.77
67799;SHT30;54596;43.216;27.904;2023-02-15T05:01:57;4.12;76.82
67799;SHT30;54596;43.216;27.904;2023-02-15T05:04:22;4.12;76.56
67799;SHT30;54596;43.216;27.904;2023-02-15T05:06:48;4.11;76.81
67799;SHT30;54596;43.216;27.904;2023-02-15T05:09:13;4.11;76.50
67799;SHT30;54596;43.216;27.904;2023-02-15T05:11:39;4.22;76.35
67799;SHT30;54596;43.216;27.904;2023-02-15T05:14:05;4.15;76.08
67799;SHT30;54596;43.216;27.904;2023-02-15T05:16:30;4.08;76.26
67799;SHT30;54596;43.216;27.904;2023-02-15T05:18:56;4.11;77.04
67799;SHT30;54596;43.216;27.904;2023-02-15T05:21:22;4.19;76.69
67799;SHT30;54596;43.216;27.904;2023-02-15T05:23:47;4.15;76.52
67799;SHT30;54596;43.216;27.904;2023-02-15T05:26:18;4.16;76.18
67799;SHT30;54596;43.216;27.904;2023-02-15T05:29:03;4.16;75.89
67799;SHT30;54596;43.216;27.904;2023-02-15T05:31:28;4.16;76.00
67799;SHT30;54596;43.216;27.904;2023-02-15T05:33:55;4.21;76.11
67799;SHT30;54596;43.216;27.904;2023-02-15T05:36:21;4.22;76.13
67799;SHT30;54596;43.216;27.904;2023-02-15T05:38:46;4.28;76.28
67799;SHT30;54596;43.216;27.904;2023-02-15T05:41:11;4.28;76.24
67799;SHT30;54596;43.216;27.904;2023-02-15T05:43:38;4.38;75.95
67799;SHT30;54596;43.216;27.904;2023-02-15T05:46:05;4.39;75.82
67799;SHT30;54596;43.216;27.904;2023-02-15T05:48:31;4.43;75.63
67799;SHT30;54596;43.216;27.904;2023-02-15T05:51:10;4.47;75.51
67799;SHT30;54596;43.216;27.904;2023-02-15T05:53:38;4.63;75.37
67799;SHT30;54596;43.216;27.904;2023-02-15T05:56:06;4.71;75.15
67799;SHT30;54596;43.216;27.904;2023-02-15T05:58:37;4.81;75.17
67799;SHT30;54596;43.216;27.904;2023-02-15T06:01:15;4.83;74.46
67799;SHT30;54596;43.216;27.904;2023-02-15T06:03:41;4.88;74.47
67799;SHT30;54596;43.216;27.904;2023-02-15T06:06:07;4.95;74.22
67799;SHT30;54596;43.216;27.904;2023-02-15T06:08:34;5.02;74.05
67799;SHT30;54596;43.216;27.904;2023-02-15T06:11:00;5.05;74.01
67799;SHT30;54596;43.216;27.904;2023-02-15T06:13:26;5.15;73.89
67799;SHT30;54596;43.216;27.904;2023-02-15T06:15:51;5.22;73.39
67799;SHT30;54596;43.216;27.904;2023-02-15T06:18:17;5.46;73.18
67799;SHT30;54596;43.216;27.904;2023-02-15T06:20:45;6.25;71.72
67799;SHT30;54596;43.216;27.904;2023-02-15T06:23:10;7.57;67.90
67799;SHT30;54596;43.216;27.904;2023-02-15T06:25:36;9.27;63.73
67799;SHT30;54596;43.216;27.904;2023-02-15T06:28:01;10.44;59.92
67799;SHT30;54596;43.216;27.904;2023-02-15T06:30:27;11.35;57.60
67799;SHT30;54596;43.216;27.904;2023-02-15T06:32:52;11.51;56.77
67799;SHT30;54596;43.216;27.904;2023-02-15T06:35:18;11.25;56.80
67799;SHT30;54596;43.216;27.904;2023-02-15T06:37:45;10.87;57.31
67799;SHT30;54596;43.216;27.904;2023-02-15T06:40:11;10.79;57.60
67799;SHT30;54596;43.216;27.904;2023-02-15T06:42:36;11.56;56.36
67799;SHT30;54596;43.216;27.904;2023-02-15T06:45:02;12.07;55.66
67799;SHT30;54596;43.216;27.904;2023-02-15T06:47:28;12.66;53.71
67799;SHT30;54596;43.216;27.904;2023-02-15T06:49:53;12.46;53.86
67799;SHT30;54596;43.216;27.904;2023-02-15T06:52:19;12.45;53.13
67799;SHT30;54596;43.216;27.904;2023-02-15T06:54:44;13.11;52.71
67799;SHT30;54596;43.216;27.904;2023-02-15T06:57:10;13.95;50.31
67799;SHT30;54596;43.216;27.904;2023-02-15T06:59:35;13.23;51.08
67799;SHT30;54596;43.216;27.904;2023-02-15T07:02:01;12.08;53.52
67799;SHT30;54596;43.216;27.904;2023-02-15T07:04:26;11.89;54.16
67799;SHT30;54596;43.216;27.904;2023-02-15T07:06:54;11.63;55.19
67799;SHT30;54596;43.216;27.904;2023-02-15T07:09:19;11.32;56.44
67799;SHT30;54596;43.216;27.904;2023-02-15T07:11:45;11.83;54.41
67799;SHT30;54596;43.216;27.904;2023-02-15T07:14:29;10.62;56.58
67799;SHT30;54596;43.216;27.904;2023-02-15T07:16:54;10.22;57.63
67799;SHT30;54596;43.216;27.904;2023-02-15T07:19:20;9.72;58.81
67799;SHT30;54596;43.216;27.904;2023-02-15T07:21:45;9.73;58.99
67799;SHT30;54596;43.216;27.904;2023-02-15T07:24:11;9.34;59.81
67799;SHT30;54596;43.216;27.904;2023-02-15T07:26:36;9.17;59.80
67799;SHT30;54596;43.216;27.904;2023-02-15T07:29:02;9.20;59.91
67799;SHT30;54596;43.216;27.904;2023-02-15T07:31:28;9.17;60.01
67799;SHT30;54596;43.216;27.904;2023-02-15T07:33:53;9.28;60.03
67799;SHT30;54596;43.216;27.904;2023-02-15T07:36:19;9.25;59.88
67799;SHT30;54596;43.216;27.904;2023-02-15T07:38:44;9.46;60.19
67799;SHT30;54596;43.216;27.904;2023-02-15T07:41:12;9.98;58.89
67799;SHT30;54596;43.216;27.904;2023-02-15T07:43:40;10.53;58.07
67799;SHT30;54596;43.216;27.904;2023-02-15T07:46:08;11.34;55.83
67799;SHT30;54596;43.216;27.904;2023-02-15T07:48:35;12.60;53.80
67799;SHT30;54596;43.216;27.904;2023-02-15T07:51:06;12.11;53.24
67799;SHT30;54596;43.216;27.904;2023-02-15T07:53:32;11.91;53.86
67799;SHT30;54596;43.216;27.904;2023-02-15T07:55:59;13.32;51.61
67799;SHT30;54596;43.216;27.904;2023-02-15T07:58:25;13.26;51.30
67799;SHT30;54596;43.216;27.904;2023-02-15T08:01:12;12.72;51.38
67799;SHT30;54596;43.216;27.904;2023-02-15T08:03:38;13.00;51.49
67799;SHT30;54596;43.216;27.904;2023-02-15T08:06:03;13.93;49.63
67799;SHT30;54596;43.216;27.904;2023-02-15T08:08:29;14.39;48.75
67799;SHT30;54596;43.216;27.904;2023-02-15T08:11:21;14.59;48.39
67799;SHT30;54596;43.216;27.904;2023-02-15T08:18:56;15.19;46.36
67799;SHT30;54596;43.216;27.904;2023-02-15T08:21:22;15.36;46.19
67799;SHT30;54596;43.216;27.904;2023-02-15T08:23:49;14.95;45.97
67799;SHT30;54596;43.216;27.904;2023-02-15T08:26:16;14.21;47.59
67799;SHT30;54596;43.216;27.904;2023-02-15T08:28:42;13.39;48.62
67799;SHT30;54596;43.216;27.904;2023-02-15T08:31:09;14.11;47.62
67799;SHT30;54596;43.216;27.904;2023-02-15T08:33:37;12.90;48.95
67799;SHT30;54596;43.216;27.904;2023-02-15T08:36:08;12.00;50.76
67799;SHT30;54596;43.216;27.904;2023-02-15T08:38:34;12.73;50.73
67799;SHT30;54596;43.216;27.904;2023-02-15T08:43:41;13.84;47.63
67799;SHT30;54596;43.216;27.904;2023-02-15T08:46:08;12.18;50.34
67799;SHT30;54596;43.216;27.904;2023-02-15T08:48:34;11.42;51.82
67799;SHT30;54596;43.216;27.904;2023-02-15T08:51:17;12.15;51.15
67799;SHT30;54596;43.216;27.904;2023-02-15T08:53:48;11.55;51.60
67799;SHT30;54596;43.216;27.904;2023-02-15T08:56:15;11.03;53.17
67799;SHT30;54596;43.216;27.904;2023-02-15T08:58:40;11.67;52.79
67799;SHT30;54596;43.216;27.904;2023-02-15T09:01:15;12.38;50.96
67799;SHT30;54596;43.216;27.904;2023-02-15T09:03:45;11.95;50.99
67799;SHT30;54596;43.216;27.904;2023-02-15T09:06:11;11.62;51.78
67799;SHT30;54596;43.216;27.904;2023-02-15T09:08:36;11.39;52.17
67799;SHT30;54596;43.216;27.904;2023-02-15T09:11:16;10.93;53.25
67799;SHT30;54596;43.216;27.904;2023-02-15T09:13:48;10.73;53.55
67799;SHT30;54596;43.216;27.904;2023-02-15T09:16:14;10.44;53.82
67799;SHT30;54596;43.216;27.904;2023-02-15T09:18:42;10.17;54.31
67799;SHT30;54596;43.216;27.904;2023-02-15T09:21:13;10.20;54.71
67799;SHT30;54596;43.216;27.904;2023-02-15T09:23:43;10.06;54.85
67799;SHT30;54596;43.216;27.904;2023-02-15T09:26:11;10.01;54.99
67799;SHT30;54596;43.216;27.904;2023-02-15T09:28:38;9.87;55.09
67799;SHT30;54596;43.216;27.904;2023-02-15T09:31:15;9.80;55.70
67799;SHT30;54596;43.216;27.904;2023-02-15T09:33:42;9.80;55.86
67799;SHT30;54596;43.216;27.904;2023-02-15T09:36:17;9.68;55.62
67799;SHT30;54596;43.216;27.904;2023-02-15T09:38:44;9.53;55.98
67799;SHT30;54596;43.216;27.904;2023-02-15T09:41:20;9.44;56.11
67799;SHT30;54596;43.216;27.904;2023-02-15T09:44:01;9.30;56.48
67799;SHT30;54596;43.216;27.904;2023-02-15T09:54:54;9.36;56.05
67799;SHT30;54596;43.216;27.904;2023-02-15T10:03:27;9.35;55.70
67799;SHT30;54596;43.216;27.904;2023-02-15T10:17:15;9.58;55.65
67799;SHT30;54596;43.216;27.904;2023-02-15T10:20:16;9.55;56.05
67799;SHT30;54596;43.216;27.904;2023-02-15T10:25:28;9.49;55.54
67799;SHT30;54596;43.216;27.904;2023-02-15T10:28:03;9.41;55.24
67799;SHT30;54596;43.216;27.904;2023-02-15T10:31:04;9.42;55.66
67799;SHT30;54596;43.216;27.904;2023-02-15T10:33:42;9.42;55.64
67799;SHT30;54596;43.216;27.904;2023-02-15T10:36:37;9.39;55.39
67799;SHT30;54596;43.216;27.904;2023-02-15T10:50:30;9.31;55.15
67799;SHT30;54596;43.216;27.904;2023-02-15T11:01:57;9.62;58.01
67799;SHT30;54596;43.216;27.904;2023-02-15T11:06:57;9.66;54.10
67799;SHT30;54596;43.216;27.904;2023-02-15T11:09:25;9.62;54.16
67799;SHT30;54596;43.216;27.904;2023-02-15T11:12:09;9.53;53.88
67799;SHT30;54596;43.216;27.904;2023-02-15T11:14:43;9.48;54.35
67799;SHT30;54596;43.216;27.904;2023-02-15T11:17:17;9.31;54.81
67799;SHT30;54596;43.216;27.904;2023-02-15T11:20:08;9.25;54.44
67799;SHT30;54596;43.216;27.904;2023-02-15T11:23:15;9.32;54.39
67799;SHT30;54596;43.216;27.904;2023-02-15T11:25:42;9.42;54.68
67799;SHT30;54596;43.216;27.904;2023-02-15T11:28:18;9.34;55.03
67799;SHT30;54596;43.216;27.904;2023-02-15T11:30:48;9.24;54.85
67799;SHT30;54596;43.216;27.904;2023-02-15T11:33:34;9.35;55.44
67799;SHT30;54596;43.216;27.904;2023-02-15T11:36:15;9.52;55.36
67799;SHT30;54596;43.216;27.904;2023-02-15T11:38:42;9.59;55.02
67799;SHT30;54596;43.216;27.904;2023-02-15T11:41:20;9.52;54.42
67799;SHT30;54596;43.216;27.904;2023-02-15T11:44:10;9.39;54.95
67799;SHT30;54596;43.216;27.904;2023-02-15T11:46:37;9.25;54.78
67799;SHT30;54596;43.216;27.904;2023-02-15T11:49:53;9.23;54.27
67799;SHT30;54596;43.216;27.904;2023-02-15T11:51:58;9.28;54.25
67799;SHT30;54596;43.216;27.904;2023-02-15T11:54:30;9.42;54.39
67799;SHT30;54596;43.216;27.904;2023-02-15T11:57:10;9.48;53.90
67799;SHT30;54596;43.216;27.904;2023-02-15T11:59:37;9.46;54.08
67799;SHT30;54596;43.216;27.904;2023-02-15T12:02:21;9.45;53.77
67799;SHT30;54596;43.216;27.904;2023-02-15T12:04:58;9.28;53.48
67799;SHT30;54596;43.216;27.904;2023-02-15T12:07:27;9.32;53.58
67799;SHT30;54596;43.216;27.904;2023-02-15T12:12:43;9.56;53.54
67799;SHT30;54596;43.216;27.904;2023-02-15T12:15:12;9.53;52.87
67799;SHT30;54596;43.216;27.904;2023-02-15T12:22:45;9.41;53.56
67799;SHT30;54596;43.216;27.904;2023-02-15T12:25:36;9.30;53.90
67799;SHT30;54596;43.216;27.904;2023-02-15T12:28:05;9.28;54.04
67799;SHT30;54596;43.216;27.904;2023-02-15T12:30:42;9.32;54.53
67799;SHT30;54596;43.216;27.904;2023-02-15T12:33:22;9.25;54.69
67799;SHT30;54596;43.216;27.904;2023-02-15T12:36:08;9.21;54.83
67799;SHT30;54596;43.216;27.904;2023-02-15T12:38:35;9.21;54.91
67799;SHT30;54596;43.216;27.904;2023-02-15T12:41:21;9.24;54.87
67799;SHT30;54596;43.216;27.904;2023-02-15T12:43:47;9.21;54.89
67799;SHT30;54596;43.216;27.904;2023-02-15T12:46:27;9.17;54.34
67799;SHT30;54596;43.216;27.904;2023-02-15T12:51:48;9.00;55.18
67799;SHT30;54596;43.216;27.904;2023-02-15T12:56:48;8.94;55.25
67799;SHT30;54596;43.216;27.904;2023-02-15T12:59:14;8.93;55.54
67799;SHT30;54596;43.216;27.904;2023-02-15T13:01:45;8.89;55.45
67799;SHT30;54596;43.216;27.904;2023-02-15T13:06:52;8.86;55.71
67799;SHT30;54596;43.216;27.904;2023-02-15T13:09:24;8.80;55.93
67799;SHT30;54596;43.216;27.904;2023-02-15T13:11:50;8.72;56.25
67799;SHT30;54596;43.216;27.904;2023-02-15T13:14:17;8.72;56.52
67799;SHT30;54596;43.216;27.904;2023-02-15T13:16:45;8.68;56.66
67799;SHT30;54596;43.216;27.904;2023-02-15T13:19:18;8.66;56.97
67799;SHT30;54596;43.216;27.904;2023-02-15T13:21:46;8.62;57.03
67799;SHT30;54596;43.216;27.904;2023-02-15T13:24:36;8.64;57.11
67799;SHT30;54596;43.216;27.904;2023-02-15T13:27:03;8.66;57.17
67799;SHT30;54596;43.216;27.904;2023-02-15T13:29:32;8.72;57.13
67799;SHT30;54596;43.216;27.904;2023-02-15T13:32:10;8.82;57.09
67799;SHT30;54596;43.216;27.904;2023-02-15T13:34:38;8.87;56.98
67799;SHT30;54596;43.216;27.904;2023-02-15T13:37:20;8.92;57.13
67799;SHT30;54596;43.216;27.904;2023-02-15T13:39:47;8.92;57.20
67799;SHT30;54596;43.216;27.904;2023-02-15T13:42:30;8.92;57.31
67799;SHT30;54596;43.216;27.904;2023-02-15T13:53:33;8.87;57.79
67799;SHT30;54596;43.216;27.904;2023-02-15T13:55:44;8.82;57.91
67799;SHT30;54596;43.216;27.904;2023-02-15T13:58:41;8.76;57.97
67799;SHT30;54596;43.216;27.904;2023-02-15T14:07:04;8.75;58.13
67799;SHT30;54596;43.216;27.904;2023-02-15T14:20:44;8.59;58.63
67799;SHT30;54596;43.216;27.904;2023-02-15T14:26:29;8.52;58.85
67799;SHT30;54596;43.216;27.904;2023-02-15T14:31:40;8.61;59.15
67799;SHT30;54596;43.216;27.904;2023-02-15T14:34:22;8.58;58.16
67799;SHT30;54596;43.216;27.904;2023-02-15T14:36:50;8.61;57.15
67799;SHT30;54596;43.216;27.904;2023-02-15T14:42:51;8.56;56.62
67799;SHT30;54596;43.216;27.904;2023-02-15T14:48:43;8.51;55.47
67799;SHT30;54596;43.216;27.904;2023-02-15T14:51:10;8.47;55.48
67799;SHT30;54596;43.216;27.904;2023-02-15T14:53:50;8.48;54.98
67799;SHT30;54596;43.216;27.904;2023-02-15T14:56:22;8.44;54.35
67799;SHT30;54596;43.216;27.904;2023-02-15T15:01:31;8.38;54.07
67799;SHT30;54596;43.216;27.904;2023-02-15T15:04:00;8.34;53.78
67799;SHT30;54596;43.216;27.904;2023-02-15T15:06:32;8.30;53.91
67799;SHT30;54596;43.216;27.904;2023-02-15T15:09:30;8.28;53.89
67799;SHT30;54596;43.216;27.904;2023-02-15T15:12:35;8.26;54.02
67799;SHT30;54596;43.216;27.904;2023-02-15T15:15:01;8.21;54.07
67799;SHT30;54596;43.216;27.904;2023-02-15T15:22:30;8.16;54.54
67799;SHT30;54596;43.216;27.904;2023-02-15T15:24:56;8.14;55.33
67799;SHT30;54596;43.216;27.904;2023-02-15T15:27:46;8.09;55.08
67799;SHT30;54596;43.216;27.904;2023-02-15T15:46:52;7.79;56.40
67799;SHT30;54596;43.216;27.904;2023-02-15T15:49:24;7.78;56.48
67799;SHT30;54596;43.216;27.904;2023-02-15T15:51:52;7.76;56.60
67799;SHT30;54596;43.216;27.904;2023-02-15T15:54:23;7.74;56.66
67799;SHT30;54596;43.216;27.904;2023-02-15T15:57:01;7.68;56.89
67799;SHT30;54596;43.216;27.904;2023-02-15T15:59:30;7.66;57.03
67799;SHT30;54596;43.216;27.904;2023-02-15T16:02:04;7.61;57.17
67799;SHT30;54596;43.216;27.904;2023-02-15T16:04:31;7.54;57.29
67799;SHT30;54596;43.216;27.904;2023-02-15T16:07:44;7.46;57.49
67799;SHT30;54596;43.216;27.904;2023-02-15T16:12:20;7.37;58.02
67799;SHT30;54596;43.216;27.904;2023-02-15T16:14:46;7.31;58.11
67799;SHT30;54596;43.216;27.904;2023-02-15T16:17:29;7.30;58.30
67799;SHT30;54596;43.216;27.904;2023-02-15T16:22:45;7.23;58.59
67799;SHT30;54596;43.216;27.904;2023-02-15T16:25:29;7.19;58.76
67799;SHT30;54596;43.216;27.904;2023-02-15T16:27:56;7.10;59.00
67799;SHT30;54596;43.216;27.904;2023-02-15T16:30:31;7.09;59.07
67799;SHT30;54596;43.216;27.904;2023-02-15T16:33:04;7.05;59.24
67799;SHT30;54596;43.216;27.904;2023-02-15T16:35:31;6.95;59.46
67799;SHT30;54596;43.216;27.904;2023-02-15T16:37:56;6.92;59.38
67799;SHT30;54596;43.216;27.904;2023-02-15T16:40:26;6.82;59.55
67799;SHT30;54596;43.216;27.904;2023-02-15T16:42:54;6.72;59.70
67799;SHT30;54596;43.216;27.904;2023-02-15T16:45:24;6.72;59.73
67799;SHT30;54596;43.216;27.904;2023-02-15T16:47:54;6.68;59.81
67799;SHT30;54596;43.216;27.904;2023-02-15T16:50:36;6.60;60.22
67799;SHT30;54596;43.216;27.904;2023-02-15T16:53:04;6.48;60.69
67799;SHT30;54596;43.216;27.904;2023-02-15T16:55:41;6.44;61.16
67799;SHT30;54596;43.216;27.904;2023-02-15T16:58:11;6.33;62.64
67799;SHT30;54596;43.216;27.904;2023-02-15T17:00:39;6.37;63.00
67799;SHT30;54596;43.216;27.904;2023-02-15T17:05:50;6.29;64.34
67799;SHT30;54596;43.216;27.904;2023-02-15T17:08:32;6.27;64.44
67799;SHT30;54596;43.216;27.904;2023-02-15T17:13:23;6.32;64.60
67799;SHT30;54596;43.216;27.904;2023-02-15T17:18:28;6.25;65.08
67799;SHT30;54596;43.216;27.904;2023-02-15T17:20:57;6.23;65.23
67799;SHT30;54596;43.216;27.904;2023-02-15T17:23:32;6.23;65.48
67799;SHT30;54596;43.216;27.904;2023-02-15T17:26:00;6.22;65.63
67799;SHT30;54596;43.216;27.904;2023-02-15T17:28:30;6.10;66.04
67799;SHT30;54596;43.216;27.904;2023-02-15T17:30:58;6.12;66.01
67799;SHT30;54596;43.216;27.904;2023-02-15T17:33:37;6.15;65.94
67799;SHT30;54596;43.216;27.904;2023-02-15T17:36:19;6.13;66.03
67799;SHT30;54596;43.216;27.904;2023-02-15T17:39:06;6.13;66.28
67799;SHT30;54596;43.216;27.904;2023-02-15T17:41:44;6.13;66.44
67799;SHT30;54596;43.216;27.904;2023-02-15T17:44:12;6.10;66.62
67799;SHT30;54596;43.216;27.904;2023-02-15T17:46:42;6.03;66.86
67799;SHT30;54596;43.216;27.904;2023-02-15T17:49:18;6.02;66.98
67799;SHT30;54596;43.216;27.904;2023-02-15T17:51:47;5.99;67.01
67799;SHT30;54596;43.216;27.904;2023-02-15T17:54:12;5.92;67.12
67799;SHT30;54596;43.216;27.904;2023-02-15T17:56:56;5.78;67.48
67799;SHT30;54596;43.216;27.904;2023-02-15T17:59:27;5.68;68.30
67799;SHT30;54596;43.216;27.904;2023-02-15T18:01:52;5.63;68.59
67799;SHT30;54596;43.216;27.904;2023-02-15T18:04:37;5.51;69.01
67799;SHT30;54596;43.216;27.904;2023-02-15T18:07:21;5.47;69.03
67799;SHT30;54596;43.216;27.904;2023-02-15T18:10:13;5.42;69.38
67799;SHT30;54596;43.216;27.904;2023-02-15T18:12:57;5.35;69.36
67799;SHT30;54596;43.216;27.904;2023-02-15T18:15:23;5.32;69.27
67799;SHT30;54596;43.216;27.904;2023-02-15T18:17:48;5.30;68.99
67799;SHT30;54596;43.216;27.904;2023-02-15T18:22:43;5.29;69.13
67799;SHT30;54596;43.216;27.904;2023-02-15T18:25:14;5.29;68.83
67799;SHT30;54596;43.216;27.904;2023-02-15T18:27:40;5.33;68.53
67799;SHT30;54596;43.216;27.904;2023-02-15T18:30:06;5.27;68.55
67799;SHT30;54596;43.216;27.904;2023-02-15T18:32:35;5.26;68.46
67799;SHT30;54596;43.216;27.904;2023-02-15T18:35:03;5.26;68.59
67799;SHT30;54596;43.216;27.904;2023-02-15T18:37:31;5.25;68.72
67799;SHT30;54596;43.216;27.904;2023-02-15T18:39:58;5.22;68.61
67799;SHT30;54596;43.216;27.904;2023-02-15T18:42:30;5.12;69.11
67799;SHT30;54596;43.216;27.904;2023-02-15T18:44:58;5.12;69.12
67799;SHT30;54596;43.216;27.904;2023-02-15T18:50:08;4.96;69.92
67799;SHT30;54596;43.216;27.904;2023-02-15T18:52:36;4.89;70.30
67799;SHT30;54596;43.216;27.904;2023-02-15T18:55:15;4.89;70.17